Etusivu
METAR-TAF:

METAR-TAF

Lentoasemat :

Changsha, Kiina

Leveyspiiri: 28-11N, Pituuspiiri: 113-13E, korkeus merenpinnasta: 66 m

Tämänhetkinen sää

Tämä raportti tehtiin 45 minuuttia sitten, kello 00.00 UTC
Tuuli 2 kn eri suunnista
Lämpötila 6°C
Kosteus 93%
Ilmanpaine 1023 hPa
Näkyvyys: 5000 m
utua

METAR: ZGHA 110000Z VRB01MPS 5000 BR NSC 06/05 Q1023 NOSIG

Aika: 08:45 (00:45 UTC)

Sääennuste

Tämä raportti tehtiin 5 tuntia ja 43 minuuttia sitten, kello 19.02 UTC
Ennuste voimassa 11. päivästä klo 00 UTC - 11. päivään klo 24 UTC
Tuuli 8 kn pohjoisen/luoteesta
Näkyvyys: 3500 m
utua

TAF: ZGHA 101902Z 1100/1124 34004MPS 3500 BR NSC TX19/1106Z TN05/1122Z

Säähavainnot ja -ennusteet yli 4000 lentoasemalta (METAR- ja TAF-raportit).

Käytössä olevat sääasemat on merkitty karttaan keltaisilla ja punaisilla pisteillä.

Aseta hiiri pisteen päälle nähdäksesi sääaseman nimen.

Klikkaa sitten nähdäksesi säähavainnot ja -ennusteet.

Kartan vaihtaminen: klikkaa mustalla rastilla varustettuja vihreitä pisteitä, niin voit zoomata sisään; viivalla varustettua vihreää pistettä, niin voit zoomata ulos tai vihreitä nuolia, niin pääset viereisille kartoille.


METAR-TAF: